Latest Weather Observations for Centre Island

IDD60801

Issued at 4:05 pm CST Tuesday 2 September 2014 (issued every 30 minutes, with the page automatically refreshed every 10 minutes)

About weather observations | Map of weather stations | Latest weather observations for NT | Other Formats
Station Details ID: 014703 Name: CENTRE ISLAND Lat: -15.74 Lon: 136.82 Height: 12.2 m
Data from the previous 72 hours. | See also: Recent months at Centre Island
Date/Time
CST
Temp
°C
App
Temp
°C
Dew
Point
Rel
Hum
%
Delta-T
°C
Wind Press
QNH
hPa
Press
MSL
hPa
Rain
since 9 am
mm
Dir
 
Spd
km/h
Gust
km/h
Spd
kts
Gust
kts
02/04:00pm 28.2 26.3 15.8 47 7.6 NNE 20 26 11 14 1012.9 1012.9 0.0
02/03:30pm 29.1 25.8 14.9 42 8.6 NNE 26 32 14 17 1012.9 1012.9 0.0
02/03:00pm 30.3 29.4 14.8 39 9.5 NNE 13 19 7 10 1012.9 1012.9 0.0
02/02:30pm 31.5 30.7 15.0 36 10.1 NE 13 17 7 9 1013.2 1013.2 0.0
02/02:00pm 31.3 29.3 12.6 31 11.1 NE 15 20 8 11 1013.7 1013.7 0.0
02/01:30pm 31.5 30.2 13.7 33 10.7 NE 13 19 7 10 1014.0 1014.0 0.0
02/01:00pm 30.2 29.0 13.9 37 9.8 ENE 13 17 7 9 1014.4 1014.4 0.0
02/12:30pm 31.0 29.5 14.2 36 10.2 E 15 17 8 9 1014.8 1014.8 0.0
02/12:00pm 30.8 29.2 12.7 33 10.7 E 13 17 7 9 1015.1 1015.1 0.0
02/11:30am 29.0 28.9 14.0 39 9.0 S 7 9 4 5 1015.7 1015.7 0.0
02/11:00am 26.5 27.2 16.1 52 6.4 SSW 7 11 4 6 1016.1 1016.1 0.0
02/10:30am 25.1 25.9 17.3 62 4.8 SSW 9 11 5 6 1016.5 1016.5 0.0
02/10:00am 23.8 24.7 17.5 68 3.9 SW 9 13 5 7 1016.4 1016.4 0.0
02/09:30am 23.4 24.0 17.6 70 3.6 S 11 13 6 7 1016.5 1016.5 0.0
02/09:00am 22.7 23.6 17.6 73 3.2 S 9 13 5 7 1016.5 1016.5 0.2
02/08:30am 21.9 22.5 17.7 77 2.6 S 11 15 6 8 1016.5 1016.5 0.2
02/08:00am 20.4 20.0 17.2 82 2.0 S 15 17 8 9 1016.3 1016.3 0.2
02/07:30am 19.8 19.9 18.3 91 0.9 S 15 20 8 11 1016.3 1016.3 0.2
02/07:00am 19.4 19.2 18.6 95 0.5 S 17 19 9 10 1016.2 1016.2 0.2
02/06:30am 19.6 19.3 19.1 97 0.3 S 19 20 10 11 1016.1 1016.1 0.2
02/06:00am 19.3 19.7 19.0 98 0.2 SSW 15 19 8 10 1015.8 1015.8 0.2
02/05:30am 19.4 19.8 19.1 98 0.2 SSW 15 19 8 10 1015.3 1015.3 0.2
02/05:00am 19.6 20.0 19.1 97 0.3 S 15 19 8 10 1015.1 1015.1 0.2
02/04:30am 19.9 21.2 19.4 97 0.3 S 11 15 6 8 1015.2 1015.2 0.0
02/04:00am 20.2 21.7 19.7 97 0.3 S 11 15 6 8 1015.1 1015.1 0.0
02/03:30am 20.9 21.9 20.2 96 0.4 S 15 19 8 10 1015.3 1015.3 0.0
02/03:00am 21.3 23.2 20.6 96 0.5 S 11 13 6 7 1015.3 1015.3 0.0
02/02:30am 21.2 23.8 20.4 95 0.5 S 7 11 4 6 1015.3 1015.3 0.0
02/02:00am 20.5 24.0 19.5 94 0.6 CALM 0 0 0 0 1015.4 1015.4 0.0
02/01:30am 20.3 23.7 19.3 94 0.6 CALM 0 0 0 0 1015.6 1015.6 0.0
02/01:00am 20.8 24.3 19.6 93 0.8 CALM 0 0 0 0 1015.8 1015.8 0.0
02/12:30am 20.9 23.1 19.7 93 0.8 E 7 9 4 5 1015.7 1015.7 0.0
02/12:00am 21.3 23.7 20.1 93 0.8 ENE 7 9 4 5 1015.5 1015.5 0.0
 
Date/Time
CST
Temp
°C
App
Temp
°C
Dew
Point
Rel
Hum
%
Delta-T
°C
Wind Press
QNH
hPa
Press
MSL
hPa
Rain
since 9 am
mm
Dir
 
Spd
km/h
Gust
km/h
Spd
kts
Gust
kts
01/11:30pm 21.4 23.4 20.0 92 0.9 NE 9 11 5 6 1015.3 1015.3 0.0
01/11:00pm 21.6 23.7 20.2 92 0.9 NE 9 13 5 7 1015.1 1015.1 0.0
01/10:30pm 21.6 24.0 20.1 91 1.0 NNE 7 11 4 6 1014.9 1014.9 0.0
01/10:00pm 21.9 23.7 20.4 91 1.0 NNE 11 15 6 8 1014.7 1014.7 0.0
01/09:30pm 21.9 23.6 20.2 90 1.1 NE 11 13 6 7 1014.6 1014.6 0.0
01/09:00pm 21.9 23.5 20.0 89 1.2 NNE 11 13 6 7 1014.5 1014.5 0.0
01/08:30pm 22.2 23.9 20.1 88 1.4 NNE 11 15 6 8 1014.3 1014.3 0.0
01/08:00pm 22.3 23.5 20.0 87 1.5 NNE 13 15 7 8 1014.0 1014.0 0.0
01/07:30pm 22.5 23.7 20.0 86 1.6 NNE 13 17 7 9 1013.8 1013.8 0.0
01/07:00pm 22.6 24.5 19.8 84 1.8 N 9 15 5 8 1013.5 1013.5 0.0
01/06:30pm 23.1 23.4 19.5 80 2.3 NNE 17 22 9 12 1013.2 1013.2 0.0
01/06:00pm 23.7 23.3 19.0 75 3.0 NNE 19 24 10 13 1012.9 1012.9 0.0
01/05:30pm 24.7 24.1 18.9 70 3.7 NNE 20 28 11 15 1012.7 1012.7 0.0
01/05:00pm 25.3 23.6 18.2 64 4.5 NNE 24 32 13 17 1012.6 1012.6 0.0
01/04:30pm 25.7 23.8 17.6 61 5.1 NNE 24 32 13 17 1012.5 1012.5 0.0
01/04:00pm 26.4 24.3 17.2 57 5.7 NNE 24 30 13 16 1012.6 1012.6 0.0
01/03:30pm 26.7 24.7 17.5 57 5.8 NNE 24 35 13 19 1012.8 1012.8 0.0
01/03:00pm 28.1 26.2 16.7 50 7.1 NNE 22 30 12 16 1012.7 1012.7 0.0
01/02:30pm 29.5 27.0 15.2 41 8.8 NE 22 30 12 16 1012.8 1012.8 0.0
01/02:00pm 30.1 27.6 13.4 36 10.0 NE 19 26 10 14 1013.2 1013.2 0.0
01/01:30pm 30.4 28.0 13.7 36 10.0 E 19 22 10 12 1013.5 1013.5 0.0
01/01:00pm 30.0 28.1 15.7 42 8.8 E 20 22 11 12 1014.1 1014.1 0.0
01/12:30pm 29.5 28.2 14.9 41 8.9 E 15 19 8 10 1014.4 1014.4 0.0
01/12:00pm 28.6 29.0 16.2 47 7.7 ESE 9 13 5 7 1014.9 1014.9 0.0
01/11:30am 27.3 27.8 15.6 48 7.1 S 7 11 4 6 1015.4 1015.4 0.0
01/11:00am 25.9 26.3 17.3 59 5.4 SSW 11 13 6 7 1015.8 1015.8 0.0
01/10:30am 24.9 25.4 18.3 66 4.2 SW 13 15 7 8 1016.3 1016.3 0.0
01/10:00am 23.8 23.9 18.4 72 3.4 SSW 15 20 8 11 1016.4 1016.4 0.0
01/09:30am 21.9 21.8 17.9 78 2.5 SSW 15 20 8 11 1016.5 1016.5 0.0
01/09:00am 19.9 20.6 18.0 89 1.2 SSW 11 13 6 7 1016.7 1016.7 0.2
01/08:30am 19.4 20.2 19.1 98 0.2 S 13 17 7 9 1016.5 1016.5 0.2
01/08:00am 18.6 19.5 18.3 98 0.2 S 11 17 6 9 1016.2 1016.2 0.2
01/07:30am 18.8 19.4 18.5 98 0.2 SSW 13 17 7 9 1015.9 1015.9 0.2
01/07:00am 18.9 19.4 18.4 97 0.3 S 13 20 7 11 1015.5 1015.5 0.2
01/06:30am 18.7 19.5 18.2 97 0.3 S 11 17 6 9 1015.1 1015.1 0.2
01/06:00am 18.7 19.8 18.0 96 0.4 S 9 15 5 8 1014.8 1014.8 0.0
01/05:30am 19.0 20.6 18.3 96 0.4 S 7 13 4 7 1014.5 1014.5 0.0
01/05:00am 19.1 20.7 18.3 95 0.5 S 7 11 4 6 1014.4 1014.4 0.0
01/04:30am 19.7 20.5 19.0 96 0.4 S 13 17 7 9 1014.3 1014.3 0.0
01/04:00am 20.2 22.5 19.5 96 0.4 S 6 7 3 4 1013.8 1013.8 0.0
01/03:30am 20.6 23.5 19.9 96 0.4 S 4 9 2 5 1013.8 1013.8 0.0
01/03:00am 20.8 23.8 20.1 96 0.4 S 4 9 2 5 1013.6 1013.6 0.0
01/02:30am 21.0 23.7 20.3 96 0.4 SSE 6 9 3 5 1013.6 1013.6 0.0
01/02:00am 20.4 23.1 19.4 94 0.6 SSE 4 7 2 4 1013.6 1013.6 0.0
01/01:30am 20.0 23.2 18.8 93 0.8 CALM 0 0 0 0 1013.6 1013.6 0.0
01/01:00am 20.5 23.9 19.3 93 0.8 CALM 0 6 0 3 1013.6 1013.6 0.0
01/12:30am 20.7 23.0 19.5 93 0.8 ESE 6 7 3 4 1013.7 1013.7 0.0
01/12:00am 20.8 23.0 19.6 93 0.8 E 7 9 4 5 1013.9 1013.9 0.0
 
Date/Time
CST
Temp
°C
App
Temp
°C
Dew
Point
Rel
Hum
%
Delta-T
°C
Wind Press
QNH
hPa
Press
MSL
hPa
Rain
since 9 am
mm
Dir
 
Spd
km/h
Gust
km/h
Spd
kts
Gust
kts
31/11:30pm 21.1 23.5 20.1 94 0.6 E 7 9 4 5 1014.1 1014.1 0.0
31/11:00pm 21.3 23.4 20.1 93 0.8 ENE 9 11 5 6 1014.0 1014.0 0.0
31/10:30pm 21.4 23.5 20.2 93 0.8 ENE 9 11 5 6 1014.1 1014.1 0.0
31/10:00pm 21.6 23.7 20.2 92 0.9 NE 9 13 5 7 1014.0 1014.0 0.0
31/09:30pm 21.7 23.4 20.2 91 1.0 NNE 11 15 6 8 1014.1 1014.1 0.0
31/09:00pm 21.7 23.3 20.0 90 1.1 NE 11 15 6 8 1013.9 1013.9 0.0
31/08:30pm 21.8 23.8 19.9 89 1.2 NNE 9 15 5 8 1013.8 1013.8 0.0
31/08:00pm 22.0 23.2 19.9 88 1.3 NNE 13 17 7 9 1013.5 1013.5 0.0
31/07:30pm 22.2 23.5 20.1 88 1.4 N 13 20 7 11 1013.2 1013.2 0.0
31/07:00pm 22.3 23.1 19.8 86 1.6 NNE 15 20 8 11 1012.8 1012.8 0.0
31/06:30pm 22.5 22.9 19.9 85 1.7 NNE 17 22 9 12 1012.6 1012.6 0.0
31/06:00pm 22.9 23.2 19.5 81 2.2 NNE 17 22 9 12 1012.4 1012.4 0.0
31/05:30pm 23.8 23.5 19.1 75 3.0 NNE 19 24 10 13 1012.2 1012.2 0.0
31/05:00pm 25.1 25.2 19.2 70 3.8 NNE 17 24 9 13 1012.1 1012.1 0.0
31/04:30pm 25.5 24.8 18.2 64 4.6 NNE 19 26 10 14 1012.1 1012.1 0.0
31/04:00pm 25.5 24.6 18.2 64 4.6 NNE 20 28 11 15 1012.0 1012.0 0.0
31/03:30pm 26.9 24.7 16.8 54 6.3 NE 24 35 13 19 1011.8 1011.8 0.0
31/03:00pm 27.6 25.9 16.2 49 7.0 NE 20 28 11 15 1011.9 1011.9 0.0
31/02:30pm 28.3 26.1 14.5 43 8.3 ENE 19 28 10 15 1012.1 1012.1 0.0
31/02:00pm 28.5 24.9 14.3 41 8.5 ENE 26 32 14 17 1012.6 1012.6 0.0
31/01:55pm 28.6 24.5 13.7 40 8.9 ENE 28 37 15 20 1012.7 1012.7 0.0
31/01:30pm 28.8 28.1 13.1 38 9.3 SSE 9 11 5 6 1012.9 1012.9 0.0
31/01:00pm 28.8 28.2 12.2 35 9.7 SE 7 9 4 5 1013.4 1013.4 0.0
31/12:30pm 28.6 28.4 14.8 43 8.4 ESE 9 11 5 6 1013.8 1013.8 0.0
31/12:00pm 26.3 26.3 14.1 47 7.2 SE 7 9 4 5 1014.3 1014.3 0.0
31/11:30am 26.3 27.5 16.8 56 5.9 SW 6 9 3 5 1014.7 1014.7 0.0
31/11:00am 24.3 24.8 17.5 66 4.2 W 11 13 6 7 1015.2 1015.2 0.0
31/10:30am 23.4 23.8 17.2 68 3.8 WSW 11 13 6 7 1015.5 1015.5 0.0
31/10:00am 22.7 22.9 16.7 69 3.7 SSW 11 13 6 7 1015.7 1015.7 0.0
31/09:30am 22.0 22.0 17.2 74 2.9 SSW 13 17 7 9 1015.9 1015.9 0.0
31/09:00am 21.1 21.0 16.9 77 2.6 SSW 13 17 7 9 1015.9 1015.9 0.2
31/08:30am 20.0 19.8 16.8 82 1.9 S 13 15 7 8 1015.7 1015.7 0.2
31/08:00am 19.5 20.5 18.7 95 0.5 S 11 15 6 8 1015.7 1015.7 0.2
31/07:30am 19.1 20.0 18.4 96 0.4 S 11 17 6 9 1015.6 1015.6 0.2
31/07:00am 18.8 18.9 18.3 97 0.3 S 15 20 8 11 1015.2 1015.2 0.2
31/06:30am 18.5 18.8 18.0 97 0.3 SSW 13 17 7 9 1014.9 1014.9 0.2
31/06:00am 18.6 19.0 18.1 97 0.3 SSW 13 15 7 8 1014.8 1014.8 0.2
31/05:30am 18.9 19.0 18.4 97 0.3 S 15 17 8 9 1014.7 1014.7 0.2
31/05:00am 19.3 20.3 18.6 96 0.4 SSE 11 17 6 9 1014.4 1014.4 0.2
31/04:30am 19.3 21.0 18.6 96 0.4 SSE 7 9 4 5 1014.3 1014.3 0.0
31/04:00am 19.3 21.6 18.5 95 0.5 SE 4 9 2 5 1014.2 1014.2 0.0
31/03:30am 19.5 21.3 18.7 95 0.5 ESE 7 11 4 6 1014.2 1014.2 0.0
31/03:00am 19.7 21.6 18.9 95 0.5 ESE 7 13 4 7 1014.1 1014.1 0.0
31/02:30am 19.9 21.0 18.9 94 0.6 SE 11 15 6 8 1014.1 1014.1 0.0
31/02:00am 19.7 20.3 18.5 93 0.7 SSE 13 17 7 9 1014.1 1014.1 0.0
31/01:30am 19.6 20.1 18.4 93 0.7 SSE 13 15 7 8 1014.3 1014.3 0.0
31/01:00am 19.8 20.4 18.5 92 0.8 SSE 13 17 7 9 1014.6 1014.6 0.0
31/12:30am 19.9 20.1 18.6 92 0.8 SSE 15 20 8 11 1014.9 1014.9 0.0
31/12:00am 20.5 21.4 19.3 93 0.8 SSE 13 17 7 9 1015.1 1015.1 0.0
 
Date/Time
CST
Temp
°C
App
Temp
°C
Dew
Point
Rel
Hum
%
Delta-T
°C
Wind Press
QNH
hPa
Press
MSL
hPa
Rain
since 9 am
mm
Dir
 
Spd
km/h
Gust
km/h
Spd
kts
Gust
kts
30/11:30pm 20.7 21.7 19.4 92 0.8 ESE 13 15 7 8 1014.7 1014.7 0.0
30/11:00pm 20.9 21.6 19.6 92 0.8 ESE 15 17 8 9 1014.8 1014.8 0.0
30/10:30pm 20.9 21.8 19.2 90 1.1 ESE 13 15 7 8 1014.9 1014.9 0.0
30/10:00pm 21.1 21.2 19.2 89 1.2 ESE 17 20 9 11 1014.8 1014.8 0.0
30/09:30pm 21.0 22.5 18.9 88 1.3 ESE 9 13 5 7 1014.9 1014.9 0.0
30/09:00pm 21.0 21.7 18.8 87 1.4 ESE 13 17 7 9 1014.6 1014.6 0.0
30/08:30pm 21.1 22.4 18.5 85 1.6 ENE 9 13 5 7 1014.4 1014.4 0.0
30/08:00pm 21.4 22.3 18.4 83 1.9 NE 11 15 6 8 1013.9 1013.9 0.0
30/07:30pm 21.6 22.0 18.2 81 2.1 NE 13 19 7 10 1013.5 1013.5 0.0
30/07:00pm 21.9 21.6 18.3 80 2.3 NE 17 20 9 11 1013.2 1013.2 0.0
30/06:30pm 22.1 21.3 17.9 77 2.6 NNE 19 24 10 13 1013.1 1013.1 0.0
30/06:00pm 22.7 21.5 17.6 73 3.2 NNE 20 26 11 14 1012.9 1012.9 0.0
30/05:30pm 23.6 22.6 17.6 69 3.7 N 19 24 10 13 1012.7 1012.7 0.0
30/05:00pm 24.6 23.2 16.6 61 4.9 NNE 19 28 10 15 1012.7 1012.7 0.0
30/04:30pm 25.1 23.3 16.0 57 5.6 NNE 20 28 11 15 1012.5 1012.5 0.0

Other Formats:

Comma delimited format used in spreadsheet applications
http://www.bom.gov.au/fwo/IDD60801/IDD60801.94248.axf

JavaScript Object Notation format (JSON) in row-major order
http://www.bom.gov.au/fwo/IDD60801/IDD60801.94248.json